Pagina principale
METAR-TAF:

METAR-TAF

Aeroporti :

Aeroporto di Maun

Maun, Botswana

latitudine: 19-59S, longitudine: 023-25E, altezza: 945 m

Osservazione

Il bollettino è stato emesso 56 minuti fa, alle 12:00 UTC
Vento 7 kt da sud/sud-ovest
Temperature 36°C
Umidità 29%
Pressione 1009 hPa
Visibilità 10 km o più
Nuvoloso ad un'altezza di 3000 ft

METAR: FBMN 191200Z 20007KT 9999 BKN030 36/15 Q1009

Ora: 14:56 (12:56 UTC)

Previsione

Il bollettino è stato emesso 3 ore e 56 minuti fa, alle 09:00 UTC
Previsione valida dal 19 alle 12 UTC al 19 alle 21 UTC
Vento 10 kt da sud/sud-ovest
Visibilità 10 km o più
Nubi sparse ad un'altezza di 2500 ft

TAF: FBMN 190900Z 1912/1921 20010KT 9999 SCT025

Osservazioni e previsioni meteorologiche di più di 4000 aeroporti (messaggi METAR e TAF).

Le stazioni disponibili sono rappresentate dai dischi gialli e rossi sulla carta.

Puntare il mouse per vedere il nome della stazione.

Clicca sopra per visualizzare le osservazioni e previsioni meteorologiche.

Per cambiare la mappa : fare clic sui pulsanti verdi con una croce nera per ingrandire, il pulsante verde con un trattino per diminuire, o sulla freccia verde per le mappe adiacenti.


METAR-TAF: